sensor_id;sensor_type;location;lat;lon;timestamp;P1;durP1;ratioP1;P2;durP2;ratioP2
41921;SDS011;27609;51.002;5.354;2024-02-04T00:01:51;18.55;;;9.80;;
41921;SDS011;27609;51.002;5.354;2024-02-04T00:04:16;15.90;;;9.65;;
41921;SDS011;27609;51.002;5.354;2024-02-04T00:06:42;20.08;;;10.20;;
41921;SDS011;27609;51.002;5.354;2024-02-04T00:09:08;18.55;;;10.07;;
41921;SDS011;27609;51.002;5.354;2024-02-04T00:11:33;18.27;;;10.73;;
41921;SDS011;27609;51.002;5.354;2024-02-04T00:13:59;15.18;;;9.38;;
41921;SDS011;27609;51.002;5.354;2024-02-04T00:16:26;22.75;;;9.68;;
41921;SDS011;27609;51.002;5.354;2024-02-04T00:18:51;19.90;;;10.05;;
41921;SDS011;27609;51.002;5.354;2024-02-04T00:21:18;17.90;;;10.13;;
41921;SDS011;27609;51.002;5.354;2024-02-04T00:23:44;19.63;;;10.68;;
41921;SDS011;27609;51.002;5.354;2024-02-04T00:26:09;20.35;;;10.13;;
41921;SDS011;27609;51.002;5.354;2024-02-04T00:28:35;15.73;;;9.88;;
41921;SDS011;27609;51.002;5.354;2024-02-04T00:31:01;18.20;;;9.50;;
41921;SDS011;27609;51.002;5.354;2024-02-04T00:33:26;19.50;;;11.43;;
41921;SDS011;27609;51.002;5.354;2024-02-04T00:35:52;14.80;;;9.70;;
41921;SDS011;27609;51.002;5.354;2024-02-04T00:38:18;19.10;;;11.07;;
41921;SDS011;27609;51.002;5.354;2024-02-04T00:40:43;18.63;;;9.35;;
41921;SDS011;27609;51.002;5.354;2024-02-04T00:43:09;19.05;;;10.50;;
41921;SDS011;27609;51.002;5.354;2024-02-04T00:45:35;19.90;;;10.02;;
41921;SDS011;27609;51.002;5.354;2024-02-04T00:48:01;17.10;;;10.35;;
41921;SDS011;27609;51.002;5.354;2024-02-04T00:50:26;19.35;;;9.25;;
41921;SDS011;27609;51.002;5.354;2024-02-04T00:52:52;18.30;;;8.88;;
41921;SDS011;27609;51.002;5.354;2024-02-04T00:55:18;18.05;;;9.02;;
41921;SDS011;27609;51.002;5.354;2024-02-04T00:57:44;16.90;;;9.30;;
41921;SDS011;27609;51.002;5.354;2024-02-04T01:00:10;17.10;;;9.48;;
41921;SDS011;27609;51.002;5.354;2024-02-04T01:02:38;15.02;;;9.73;;
41921;SDS011;27609;51.002;5.354;2024-02-04T01:05:04;20.30;;;9.73;;
41921;SDS011;27609;51.002;5.354;2024-02-04T01:07:30;15.48;;;8.70;;
41921;SDS011;27609;51.002;5.354;2024-02-04T01:09:56;11.88;;;7.35;;
41921;SDS011;27609;51.002;5.354;2024-02-04T01:12:21;17.10;;;8.98;;
41921;SDS011;27609;51.002;5.354;2024-02-04T01:14:47;16.42;;;9.77;;
41921;SDS011;27609;51.002;5.354;2024-02-04T01:17:13;11.77;;;7.95;;
41921;SDS011;27609;51.002;5.354;2024-02-04T01:19:38;12.75;;;7.75;;
41921;SDS011;27609;51.002;5.354;2024-02-04T01:22:04;15.57;;;7.10;;
41921;SDS011;27609;51.002;5.354;2024-02-04T01:24:31;13.30;;;7.82;;
41921;SDS011;27609;51.002;5.354;2024-02-04T01:26:56;10.25;;;7.22;;
41921;SDS011;27609;51.002;5.354;2024-02-04T01:29:22;9.98;;;6.60;;
41921;SDS011;27609;51.002;5.354;2024-02-04T01:31:48;11.10;;;5.57;;
41921;SDS011;27609;51.002;5.354;2024-02-04T01:34:14;15.38;;;7.45;;
41921;SDS011;27609;51.002;5.354;2024-02-04T01:36:39;8.80;;;6.28;;
41921;SDS011;27609;51.002;5.354;2024-02-04T01:39:05;9.77;;;5.38;;
41921;SDS011;27609;51.002;5.354;2024-02-04T01:41:32;9.55;;;5.45;;
41921;SDS011;27609;51.002;5.354;2024-02-04T01:43:58;9.95;;;6.05;;
41921;SDS011;27609;51.002;5.354;2024-02-04T01:46:24;11.82;;;6.90;;
41921;SDS011;27609;51.002;5.354;2024-02-04T01:48:50;9.52;;;5.65;;
41921;SDS011;27609;51.002;5.354;2024-02-04T01:51:16;9.55;;;6.25;;
41921;SDS011;27609;51.002;5.354;2024-02-04T01:53:44;9.95;;;5.43;;
41921;SDS011;27609;51.002;5.354;2024-02-04T01:56:12;10.40;;;5.70;;
41921;SDS011;27609;51.002;5.354;2024-02-04T01:58:38;8.77;;;5.35;;
41921;SDS011;27609;51.002;5.354;2024-02-04T02:01:04;9.00;;;4.95;;
41921;SDS011;27609;51.002;5.354;2024-02-04T02:03:30;11.20;;;5.30;;
41921;SDS011;27609;51.002;5.354;2024-02-04T02:05:57;9.02;;;5.32;;
41921;SDS011;27609;51.002;5.354;2024-02-04T02:08:24;7.47;;;4.80;;
41921;SDS011;27609;51.002;5.354;2024-02-04T02:10:50;7.00;;;5.28;;
41921;SDS011;27609;51.002;5.354;2024-02-04T02:13:22;8.27;;;5.30;;
41921;SDS011;27609;51.002;5.354;2024-02-04T02:18:25;8.30;;;4.32;;
41921;SDS011;27609;51.002;5.354;2024-02-04T02:23:30;8.75;;;5.10;;
41921;SDS011;27609;51.002;5.354;2024-02-04T02:25:57;7.15;;;5.00;;
41921;SDS011;27609;51.002;5.354;2024-02-04T02:28:24;9.85;;;5.10;;
41921;SDS011;27609;51.002;5.354;2024-02-04T02:30:50;12.38;;;6.13;;
41921;SDS011;27609;51.002;5.354;2024-02-04T02:33:15;5.57;;;4.25;;
41921;SDS011;27609;51.002;5.354;2024-02-04T02:35:41;8.18;;;5.30;;
41921;SDS011;27609;51.002;5.354;2024-02-04T02:38:26;8.07;;;5.35;;
41921;SDS011;27609;51.002;5.354;2024-02-04T02:40:59;7.75;;;5.15;;
41921;SDS011;27609;51.002;5.354;2024-02-04T02:43:28;8.48;;;4.53;;
41921;SDS011;27609;51.002;5.354;2024-02-04T02:45:55;11.48;;;6.00;;
41921;SDS011;27609;51.002;5.354;2024-02-04T02:48:22;9.63;;;5.20;;
41921;SDS011;27609;51.002;5.354;2024-02-04T02:50:49;12.90;;;6.63;;
41921;SDS011;27609;51.002;5.354;2024-02-04T02:53:14;9.93;;;5.35;;
41921;SDS011;27609;51.002;5.354;2024-02-04T02:55:41;9.70;;;5.45;;
41921;SDS011;27609;51.002;5.354;2024-02-04T02:58:06;12.10;;;5.90;;
41921;SDS011;27609;51.002;5.354;2024-02-04T03:00:32;13.77;;;6.90;;
41921;SDS011;27609;51.002;5.354;2024-02-04T03:02:58;11.50;;;6.45;;
41921;SDS011;27609;51.002;5.354;2024-02-04T03:05:24;11.32;;;5.88;;
41921;SDS011;27609;51.002;5.354;2024-02-04T03:07:50;13.98;;;7.18;;
41921;SDS011;27609;51.002;5.354;2024-02-04T03:10:15;11.30;;;7.28;;
41921;SDS011;27609;51.002;5.354;2024-02-04T03:12:41;12.15;;;6.93;;
41921;SDS011;27609;51.002;5.354;2024-02-04T03:15:07;18.00;;;8.23;;
41921;SDS011;27609;51.002;5.354;2024-02-04T03:17:33;11.88;;;7.00;;
41921;SDS011;27609;51.002;5.354;2024-02-04T03:19:58;15.13;;;7.97;;
41921;SDS011;27609;51.002;5.354;2024-02-04T03:22:24;18.27;;;8.55;;
41921;SDS011;27609;51.002;5.354;2024-02-04T03:24:50;19.27;;;9.60;;
41921;SDS011;27609;51.002;5.354;2024-02-04T03:27:17;20.70;;;9.23;;
41921;SDS011;27609;51.002;5.354;2024-02-04T03:29:43;19.25;;;9.65;;
41921;SDS011;27609;51.002;5.354;2024-02-04T03:32:10;16.10;;;8.65;;
41921;SDS011;27609;51.002;5.354;2024-02-04T03:34:36;15.93;;;8.70;;
41921;SDS011;27609;51.002;5.354;2024-02-04T03:37:02;19.30;;;9.80;;
41921;SDS011;27609;51.002;5.354;2024-02-04T03:39:28;16.40;;;8.90;;
41921;SDS011;27609;51.002;5.354;2024-02-04T03:41:53;20.73;;;11.07;;
41921;SDS011;27609;51.002;5.354;2024-02-04T03:44:19;21.85;;;9.30;;
41921;SDS011;27609;51.002;5.354;2024-02-04T03:46:47;19.35;;;9.45;;
41921;SDS011;27609;51.002;5.354;2024-02-04T03:51:41;21.77;;;9.68;;
41921;SDS011;27609;51.002;5.354;2024-02-04T03:54:07;22.42;;;9.93;;
41921;SDS011;27609;51.002;5.354;2024-02-04T03:56:33;20.15;;;10.30;;
41921;SDS011;27609;51.002;5.354;2024-02-04T03:58:58;23.05;;;9.90;;
41921;SDS011;27609;51.002;5.354;2024-02-04T04:01:24;21.65;;;10.35;;
41921;SDS011;27609;51.002;5.354;2024-02-04T04:03:50;20.17;;;9.68;;
41921;SDS011;27609;51.002;5.354;2024-02-04T04:06:15;20.13;;;8.93;;
41921;SDS011;27609;51.002;5.354;2024-02-04T04:08:41;18.10;;;10.45;;
41921;SDS011;27609;51.002;5.354;2024-02-04T04:11:08;19.92;;;9.25;;
41921;SDS011;27609;51.002;5.354;2024-02-04T04:13:35;18.90;;;8.95;;
41921;SDS011;27609;51.002;5.354;2024-02-04T04:16:01;20.80;;;9.77;;
41921;SDS011;27609;51.002;5.354;2024-02-04T04:18:30;18.35;;;9.93;;
41921;SDS011;27609;51.002;5.354;2024-02-04T04:20:56;15.25;;;8.55;;
41921;SDS011;27609;51.002;5.354;2024-02-04T04:23:22;25.42;;;9.85;;
41921;SDS011;27609;51.002;5.354;2024-02-04T04:25:47;22.55;;;9.68;;
41921;SDS011;27609;51.002;5.354;2024-02-04T04:28:13;16.75;;;9.43;;
41921;SDS011;27609;51.002;5.354;2024-02-04T04:30:39;17.33;;;9.02;;
41921;SDS011;27609;51.002;5.354;2024-02-04T04:33:04;21.08;;;9.00;;
41921;SDS011;27609;51.002;5.354;2024-02-04T04:35:31;23.10;;;9.57;;
41921;SDS011;27609;51.002;5.354;2024-02-04T04:37:57;23.75;;;9.48;;
41921;SDS011;27609;51.002;5.354;2024-02-04T04:40:23;26.98;;;9.80;;
41921;SDS011;27609;51.002;5.354;2024-02-04T04:42:48;20.35;;;9.65;;
41921;SDS011;27609;51.002;5.354;2024-02-04T04:45:14;22.95;;;9.43;;
41921;SDS011;27609;51.002;5.354;2024-02-04T04:47:40;17.65;;;9.45;;
41921;SDS011;27609;51.002;5.354;2024-02-04T04:50:06;19.42;;;8.63;;
41921;SDS011;27609;51.002;5.354;2024-02-04T04:52:32;22.02;;;9.18;;
41921;SDS011;27609;51.002;5.354;2024-02-04T04:54:58;20.75;;;10.18;;
41921;SDS011;27609;51.002;5.354;2024-02-04T04:57:23;21.73;;;9.15;;
41921;SDS011;27609;51.002;5.354;2024-02-04T04:59:49;19.52;;;9.43;;
41921;SDS011;27609;51.002;5.354;2024-02-04T05:02:15;20.40;;;9.10;;
41921;SDS011;27609;51.002;5.354;2024-02-04T05:04:44;21.67;;;9.88;;
41921;SDS011;27609;51.002;5.354;2024-02-04T05:07:10;18.27;;;9.77;;
41921;SDS011;27609;51.002;5.354;2024-02-04T05:09:36;16.83;;;9.43;;
41921;SDS011;27609;51.002;5.354;2024-02-04T05:12:06;21.17;;;10.45;;
41921;SDS011;27609;51.002;5.354;2024-02-04T05:14:33;16.58;;;8.48;;
41921;SDS011;27609;51.002;5.354;2024-02-04T05:16:59;18.80;;;7.78;;
41921;SDS011;27609;51.002;5.354;2024-02-04T05:19:25;16.40;;;8.27;;
41921;SDS011;27609;51.002;5.354;2024-02-04T05:21:50;20.25;;;7.50;;
41921;SDS011;27609;51.002;5.354;2024-02-04T05:24:16;11.27;;;6.10;;
41921;SDS011;27609;51.002;5.354;2024-02-04T05:26:42;19.40;;;7.45;;
41921;SDS011;27609;51.002;5.354;2024-02-04T05:29:07;17.10;;;6.40;;
41921;SDS011;27609;51.002;5.354;2024-02-04T05:31:33;15.30;;;7.80;;
41921;SDS011;27609;51.002;5.354;2024-02-04T05:33:59;15.13;;;6.38;;
41921;SDS011;27609;51.002;5.354;2024-02-04T05:36:30;16.40;;;6.35;;
41921;SDS011;27609;51.002;5.354;2024-02-04T05:38:55;15.55;;;7.32;;
41921;SDS011;27609;51.002;5.354;2024-02-04T05:41:21;12.45;;;7.18;;
41921;SDS011;27609;51.002;5.354;2024-02-04T05:43:47;13.80;;;5.72;;
41921;SDS011;27609;51.002;5.354;2024-02-04T05:46:13;16.80;;;7.07;;
41921;SDS011;27609;51.002;5.354;2024-02-04T05:48:40;15.73;;;6.30;;
41921;SDS011;27609;51.002;5.354;2024-02-04T05:51:09;13.85;;;6.38;;
41921;SDS011;27609;51.002;5.354;2024-02-04T05:53:35;14.10;;;6.47;;
41921;SDS011;27609;51.002;5.354;2024-02-04T05:56:00;14.27;;;5.82;;
41921;SDS011;27609;51.002;5.354;2024-02-04T05:58:26;14.70;;;5.85;;
41921;SDS011;27609;51.002;5.354;2024-02-04T06:00:52;13.63;;;6.75;;
41921;SDS011;27609;51.002;5.354;2024-02-04T06:03:17;14.57;;;6.25;;
41921;SDS011;27609;51.002;5.354;2024-02-04T06:05:43;19.77;;;6.53;;
41921;SDS011;27609;51.002;5.354;2024-02-04T06:08:09;18.15;;;7.88;;
41921;SDS011;27609;51.002;5.354;2024-02-04T06:10:34;11.75;;;5.57;;
41921;SDS011;27609;51.002;5.354;2024-02-04T06:13:00;15.10;;;6.72;;
41921;SDS011;27609;51.002;5.354;2024-02-04T06:15:26;32.72;;;7.03;;
41921;SDS011;27609;51.002;5.354;2024-02-04T06:17:52;8.88;;;4.95;;
41921;SDS011;27609;51.002;5.354;2024-02-04T06:20:17;16.80;;;6.60;;
41921;SDS011;27609;51.002;5.354;2024-02-04T06:22:43;16.65;;;6.38;;
41921;SDS011;27609;51.002;5.354;2024-02-04T06:25:09;23.58;;;11.30;;
41921;SDS011;27609;51.002;5.354;2024-02-04T06:27:34;21.63;;;10.25;;
41921;SDS011;27609;51.002;5.354;2024-02-04T06:30:00;13.95;;;7.55;;
41921;SDS011;27609;51.002;5.354;2024-02-04T06:32:26;20.38;;;9.30;;
41921;SDS011;27609;51.002;5.354;2024-02-04T06:34:51;10.50;;;6.03;;
41921;SDS011;27609;51.002;5.354;2024-02-04T06:37:20;17.50;;;9.07;;
41921;SDS011;27609;51.002;5.354;2024-02-04T06:39:46;12.00;;;6.68;;
41921;SDS011;27609;51.002;5.354;2024-02-04T06:42:11;24.60;;;11.70;;
41921;SDS011;27609;51.002;5.354;2024-02-04T06:44:37;11.48;;;6.35;;
41921;SDS011;27609;51.002;5.354;2024-02-04T06:47:03;18.92;;;8.45;;
41921;SDS011;27609;51.002;5.354;2024-02-04T06:49:28;12.13;;;5.20;;
41921;SDS011;27609;51.002;5.354;2024-02-04T06:51:54;20.13;;;8.32;;
41921;SDS011;27609;51.002;5.354;2024-02-04T06:54:23;15.43;;;8.10;;
41921;SDS011;27609;51.002;5.354;2024-02-04T06:56:50;16.88;;;8.90;;
41921;SDS011;27609;51.002;5.354;2024-02-04T06:59:19;16.98;;;7.38;;
41921;SDS011;27609;51.002;5.354;2024-02-04T07:01:44;16.52;;;6.57;;
41921;SDS011;27609;51.002;5.354;2024-02-04T07:04:10;15.75;;;7.75;;
41921;SDS011;27609;51.002;5.354;2024-02-04T07:06:36;14.15;;;6.40;;
41921;SDS011;27609;51.002;5.354;2024-02-04T07:09:01;14.18;;;7.25;;
41921;SDS011;27609;51.002;5.354;2024-02-04T07:11:27;15.20;;;6.47;;
41921;SDS011;27609;51.002;5.354;2024-02-04T07:13:53;12.40;;;6.28;;
41921;SDS011;27609;51.002;5.354;2024-02-04T07:16:27;12.15;;;6.03;;
41921;SDS011;27609;51.002;5.354;2024-02-04T07:18:54;19.85;;;8.20;;
41921;SDS011;27609;51.002;5.354;2024-02-04T07:21:20;15.27;;;6.15;;
41921;SDS011;27609;51.002;5.354;2024-02-04T07:23:45;16.48;;;6.65;;
41921;SDS011;27609;51.002;5.354;2024-02-04T07:26:11;17.25;;;7.13;;
41921;SDS011;27609;51.002;5.354;2024-02-04T07:28:37;18.98;;;8.43;;
41921;SDS011;27609;51.002;5.354;2024-02-04T07:31:03;15.30;;;6.22;;
41921;SDS011;27609;51.002;5.354;2024-02-04T07:33:29;15.20;;;7.95;;
41921;SDS011;27609;51.002;5.354;2024-02-04T07:35:54;18.48;;;7.28;;
41921;SDS011;27609;51.002;5.354;2024-02-04T07:38:20;25.95;;;8.02;;
41921;SDS011;27609;51.002;5.354;2024-02-04T07:40:46;17.60;;;6.78;;
41921;SDS011;27609;51.002;5.354;2024-02-04T07:43:11;13.23;;;6.13;;
41921;SDS011;27609;51.002;5.354;2024-02-04T07:45:37;13.95;;;6.47;;
41921;SDS011;27609;51.002;5.354;2024-02-04T07:48:03;13.40;;;8.00;;
41921;SDS011;27609;51.002;5.354;2024-02-04T07:50:29;17.20;;;7.28;;
41921;SDS011;27609;51.002;5.354;2024-02-04T07:52:55;18.88;;;8.20;;
41921;SDS011;27609;51.002;5.354;2024-02-04T07:55:20;18.48;;;6.63;;
41921;SDS011;27609;51.002;5.354;2024-02-04T07:57:46;13.18;;;7.20;;
41921;SDS011;27609;51.002;5.354;2024-02-04T08:00:12;16.95;;;6.95;;
41921;SDS011;27609;51.002;5.354;2024-02-04T08:02:38;17.98;;;8.52;;
41921;SDS011;27609;51.002;5.354;2024-02-04T08:05:04;19.98;;;9.00;;
41921;SDS011;27609;51.002;5.354;2024-02-04T08:07:30;15.68;;;6.60;;
41921;SDS011;27609;51.002;5.354;2024-02-04T08:09:56;11.18;;;5.28;;
41921;SDS011;27609;51.002;5.354;2024-02-04T08:12:22;12.45;;;6.03;;
41921;SDS011;27609;51.002;5.354;2024-02-04T08:14:48;15.13;;;6.68;;
41921;SDS011;27609;51.002;5.354;2024-02-04T08:17:14;13.18;;;7.00;;
41921;SDS011;27609;51.002;5.354;2024-02-04T08:19:40;13.02;;;5.35;;
41921;SDS011;27609;51.002;5.354;2024-02-04T08:22:06;18.40;;;8.07;;
41921;SDS011;27609;51.002;5.354;2024-02-04T08:24:33;19.88;;;9.02;;
41921;SDS011;27609;51.002;5.354;2024-02-04T08:26:59;13.68;;;6.45;;
41921;SDS011;27609;51.002;5.354;2024-02-04T08:29:25;18.70;;;8.80;;
41921;SDS011;27609;51.002;5.354;2024-02-04T08:31:52;15.68;;;7.88;;
41921;SDS011;27609;51.002;5.354;2024-02-04T08:34:18;14.98;;;6.68;;
41921;SDS011;27609;51.002;5.354;2024-02-04T08:36:45;16.45;;;6.70;;
41921;SDS011;27609;51.002;5.354;2024-02-04T08:39:11;11.93;;;7.25;;
41921;SDS011;27609;51.002;5.354;2024-02-04T08:41:36;16.80;;;6.95;;
41921;SDS011;27609;51.002;5.354;2024-02-04T08:44:02;12.98;;;7.32;;
41921;SDS011;27609;51.002;5.354;2024-02-04T08:46:28;19.77;;;7.97;;
41921;SDS011;27609;51.002;5.354;2024-02-04T08:48:54;16.05;;;6.50;;
41921;SDS011;27609;51.002;5.354;2024-02-04T08:51:19;36.88;;;9.43;;
41921;SDS011;27609;51.002;5.354;2024-02-04T08:53:45;21.25;;;9.38;;
41921;SDS011;27609;51.002;5.354;2024-02-04T08:56:11;19.23;;;7.55;;
41921;SDS011;27609;51.002;5.354;2024-02-04T08:58:36;14.80;;;7.45;;
41921;SDS011;27609;51.002;5.354;2024-02-04T09:01:05;19.00;;;7.78;;
41921;SDS011;27609;51.002;5.354;2024-02-04T09:03:31;13.52;;;7.85;;
41921;SDS011;27609;51.002;5.354;2024-02-04T09:05:58;17.38;;;7.22;;
41921;SDS011;27609;51.002;5.354;2024-02-04T09:08:23;19.85;;;9.63;;
41921;SDS011;27609;51.002;5.354;2024-02-04T09:10:49;19.63;;;10.00;;
41921;SDS011;27609;51.002;5.354;2024-02-04T09:13:15;13.93;;;7.35;;
41921;SDS011;27609;51.002;5.354;2024-02-04T09:15:41;16.88;;;8.85;;
41921;SDS011;27609;51.002;5.354;2024-02-04T09:18:07;16.48;;;7.40;;
41921;SDS011;27609;51.002;5.354;2024-02-04T09:20:32;19.00;;;9.15;;
41921;SDS011;27609;51.002;5.354;2024-02-04T09:22:58;19.17;;;8.10;;
41921;SDS011;27609;51.002;5.354;2024-02-04T09:25:27;13.95;;;8.23;;
41921;SDS011;27609;51.002;5.354;2024-02-04T09:27:52;15.45;;;7.22;;
41921;SDS011;27609;51.002;5.354;2024-02-04T09:30:18;10.82;;;6.75;;
41921;SDS011;27609;51.002;5.354;2024-02-04T09:32:44;12.57;;;6.20;;
41921;SDS011;27609;51.002;5.354;2024-02-04T09:35:10;14.68;;;6.68;;
41921;SDS011;27609;51.002;5.354;2024-02-04T09:37:35;15.35;;;4.90;;
41921;SDS011;27609;51.002;5.354;2024-02-04T09:40:01;9.75;;;5.97;;
41921;SDS011;27609;51.002;5.354;2024-02-04T09:42:27;11.98;;;5.75;;
41921;SDS011;27609;51.002;5.354;2024-02-04T09:44:54;11.88;;;4.93;;
41921;SDS011;27609;51.002;5.354;2024-02-04T09:47:20;11.10;;;4.70;;
41921;SDS011;27609;51.002;5.354;2024-02-04T09:49:46;6.43;;;4.45;;
41921;SDS011;27609;51.002;5.354;2024-02-04T09:52:12;12.27;;;5.28;;
41921;SDS011;27609;51.002;5.354;2024-02-04T09:54:42;9.80;;;5.85;;
41921;SDS011;27609;51.002;5.354;2024-02-04T09:57:10;9.43;;;4.00;;
41921;SDS011;27609;51.002;5.354;2024-02-04T09:59:37;6.78;;;4.03;;
41921;SDS011;27609;51.002;5.354;2024-02-04T10:02:04;7.35;;;4.53;;
41921;SDS011;27609;51.002;5.354;2024-02-04T10:04:30;10.27;;;4.80;;
41921;SDS011;27609;51.002;5.354;2024-02-04T10:06:56;10.90;;;5.47;;
41921;SDS011;27609;51.002;5.354;2024-02-04T10:09:22;9.63;;;4.10;;
41921;SDS011;27609;51.002;5.354;2024-02-04T10:11:47;13.52;;;5.32;;
41921;SDS011;27609;51.002;5.354;2024-02-04T10:14:13;8.15;;;4.15;;
41921;SDS011;27609;51.002;5.354;2024-02-04T10:16:40;7.65;;;4.63;;
41921;SDS011;27609;51.002;5.354;2024-02-04T10:19:06;10.70;;;4.55;;
41921;SDS011;27609;51.002;5.354;2024-02-04T10:21:32;7.43;;;4.05;;
41921;SDS011;27609;51.002;5.354;2024-02-04T10:23:58;9.55;;;4.10;;
41921;SDS011;27609;51.002;5.354;2024-02-04T10:26:27;6.75;;;4.50;;
41921;SDS011;27609;51.002;5.354;2024-02-04T10:28:57;8.27;;;4.13;;
41921;SDS011;27609;51.002;5.354;2024-02-04T10:31:23;5.20;;;3.05;;
41921;SDS011;27609;51.002;5.354;2024-02-04T10:33:50;12.57;;;4.22;;
41921;SDS011;27609;51.002;5.354;2024-02-04T10:36:17;9.30;;;3.40;;
41921;SDS011;27609;51.002;5.354;2024-02-04T10:38:42;8.85;;;2.97;;
41921;SDS011;27609;51.002;5.354;2024-02-04T10:41:08;11.65;;;4.15;;
41921;SDS011;27609;51.002;5.354;2024-02-04T10:43:39;10.93;;;4.05;;
41921;SDS011;27609;51.002;5.354;2024-02-04T10:48:43;8.57;;;3.58;;
41921;SDS011;27609;51.002;5.354;2024-02-04T10:51:15;3.42;;;2.78;;
41921;SDS011;27609;51.002;5.354;2024-02-04T10:53:41;6.40;;;3.15;;
41921;SDS011;27609;51.002;5.354;2024-02-04T10:56:21;4.82;;;3.20;;
41921;SDS011;27609;51.002;5.354;2024-02-04T10:58:50;8.18;;;3.78;;
41921;SDS011;27609;51.002;5.354;2024-02-04T11:01:17;12.98;;;4.78;;
41921;SDS011;27609;51.002;5.354;2024-02-04T11:03:43;9.73;;;3.80;;
41921;SDS011;27609;51.002;5.354;2024-02-04T11:06:11;6.65;;;3.03;;
41921;SDS011;27609;51.002;5.354;2024-02-04T11:08:38;8.02;;;3.08;;
41921;SDS011;27609;51.002;5.354;2024-02-04T11:11:04;7.00;;;2.42;;
41921;SDS011;27609;51.002;5.354;2024-02-04T11:13:30;4.13;;;2.63;;
41921;SDS011;27609;51.002;5.354;2024-02-04T11:15:57;5.82;;;2.70;;
41921;SDS011;27609;51.002;5.354;2024-02-04T11:26:56;6.70;;;3.75;;
41921;SDS011;27609;51.002;5.354;2024-02-04T11:29:22;4.78;;;2.58;;
41921;SDS011;27609;51.002;5.354;2024-02-04T11:31:48;6.40;;;3.10;;
41921;SDS011;27609;51.002;5.354;2024-02-04T11:34:13;5.10;;;2.97;;
41921;SDS011;27609;51.002;5.354;2024-02-04T11:36:39;6.88;;;2.72;;
41921;SDS011;27609;51.002;5.354;2024-02-04T11:39:13;4.00;;;2.60;;
41921;SDS011;27609;51.002;5.354;2024-02-04T11:41:47;5.82;;;3.22;;
41921;SDS011;27609;51.002;5.354;2024-02-04T11:44:21;4.78;;;3.30;;
41921;SDS011;27609;51.002;5.354;2024-02-04T11:46:50;6.13;;;2.58;;
41921;SDS011;27609;51.002;5.354;2024-02-04T11:49:17;4.60;;;3.10;;
41921;SDS011;27609;51.002;5.354;2024-02-04T11:51:45;6.85;;;3.40;;
41921;SDS011;27609;51.002;5.354;2024-02-04T11:54:17;3.97;;;2.72;;
41921;SDS011;27609;51.002;5.354;2024-02-04T11:56:45;5.80;;;2.95;;
41921;SDS011;27609;51.002;5.354;2024-02-04T11:59:17;6.05;;;3.05;;
41921;SDS011;27609;51.002;5.354;2024-02-04T12:01:55;9.25;;;4.57;;
41921;SDS011;27609;51.002;5.354;2024-02-04T12:04:21;9.20;;;3.93;;
41921;SDS011;27609;51.002;5.354;2024-02-04T12:06:48;3.92;;;2.35;;
41921;SDS011;27609;51.002;5.354;2024-02-04T12:09:16;4.88;;;3.35;;
41921;SDS011;27609;51.002;5.354;2024-02-04T12:11:47;8.73;;;3.17;;
41921;SDS011;27609;51.002;5.354;2024-02-04T12:14:13;5.55;;;3.00;;
41921;SDS011;27609;51.002;5.354;2024-02-04T12:16:40;7.07;;;2.53;;
41921;SDS011;27609;51.002;5.354;2024-02-04T12:19:06;5.10;;;2.50;;
41921;SDS011;27609;51.002;5.354;2024-02-04T12:21:32;9.00;;;3.80;;
41921;SDS011;27609;51.002;5.354;2024-02-04T12:23:58;7.10;;;2.45;;
41921;SDS011;27609;51.002;5.354;2024-02-04T12:26:25;6.22;;;2.08;;
41921;SDS011;27609;51.002;5.354;2024-02-04T12:28:51;8.57;;;3.35;;
41921;SDS011;27609;51.002;5.354;2024-02-04T12:31:18;5.07;;;2.97;;
41921;SDS011;27609;51.002;5.354;2024-02-04T12:33:56;6.18;;;2.72;;
41921;SDS011;27609;51.002;5.354;2024-02-04T12:36:26;5.70;;;2.60;;
41921;SDS011;27609;51.002;5.354;2024-02-04T12:38:53;5.10;;;2.75;;
41921;SDS011;27609;51.002;5.354;2024-02-04T12:41:23;11.25;;;2.70;;
41921;SDS011;27609;51.002;5.354;2024-02-04T12:43:50;4.65;;;2.65;;
41921;SDS011;27609;51.002;5.354;2024-02-04T12:46:17;4.07;;;3.03;;
41921;SDS011;27609;51.002;5.354;2024-02-04T12:48:56;3.78;;;2.78;;
41921;SDS011;27609;51.002;5.354;2024-02-04T12:51:23;4.88;;;2.83;;
41921;SDS011;27609;51.002;5.354;2024-02-04T12:53:50;7.13;;;2.78;;
41921;SDS011;27609;51.002;5.354;2024-02-04T12:56:26;6.18;;;2.92;;
41921;SDS011;27609;51.002;5.354;2024-02-04T12:58:52;4.22;;;2.08;;
41921;SDS011;27609;51.002;5.354;2024-02-04T13:01:17;5.70;;;2.78;;
41921;SDS011;27609;51.002;5.354;2024-02-04T13:03:43;7.75;;;2.40;;
41921;SDS011;27609;51.002;5.354;2024-02-04T13:06:09;4.63;;;2.20;;
41921;SDS011;27609;51.002;5.354;2024-02-04T13:08:35;7.80;;;2.40;;
41921;SDS011;27609;51.002;5.354;2024-02-04T13:11:01;8.00;;;2.50;;
41921;SDS011;27609;51.002;5.354;2024-02-04T13:13:27;6.43;;;2.88;;
41921;SDS011;27609;51.002;5.354;2024-02-04T13:15:53;13.05;;;3.58;;
41921;SDS011;27609;51.002;5.354;2024-02-04T13:18:19;12.95;;;3.95;;
41921;SDS011;27609;51.002;5.354;2024-02-04T13:20:45;15.95;;;4.70;;
41921;SDS011;27609;51.002;5.354;2024-02-04T13:23:11;4.00;;;2.25;;
41921;SDS011;27609;51.002;5.354;2024-02-04T13:25:37;2.95;;;2.15;;
41921;SDS011;27609;51.002;5.354;2024-02-04T13:28:03;5.85;;;2.00;;
41921;SDS011;27609;51.002;5.354;2024-02-04T13:30:29;3.85;;;2.20;;
41921;SDS011;27609;51.002;5.354;2024-02-04T13:32:55;2.42;;;2.15;;
41921;SDS011;27609;51.002;5.354;2024-02-04T13:35:22;3.88;;;1.85;;
41921;SDS011;27609;51.002;5.354;2024-02-04T13:37:49;5.40;;;1.95;;
41921;SDS011;27609;51.002;5.354;2024-02-04T13:40:20;2.72;;;1.63;;
41921;SDS011;27609;51.002;5.354;2024-02-04T13:45:14;6.38;;;1.67;;
41921;SDS011;27609;51.002;5.354;2024-02-04T13:47:39;3.40;;;1.70;;
41921;SDS011;27609;51.002;5.354;2024-02-04T13:50:06;3.47;;;1.95;;
41921;SDS011;27609;51.002;5.354;2024-02-04T13:52:34;4.25;;;1.90;;
41921;SDS011;27609;51.002;5.354;2024-02-04T13:55:00;2.70;;;1.88;;
41921;SDS011;27609;51.002;5.354;2024-02-04T13:57:26;5.57;;;1.70;;
41921;SDS011;27609;51.002;5.354;2024-02-04T13:59:52;3.63;;;1.60;;
41921;SDS011;27609;51.002;5.354;2024-02-04T14:02:18;2.53;;;1.55;;
41921;SDS011;27609;51.002;5.354;2024-02-04T14:04:43;3.33;;;1.75;;
41921;SDS011;27609;51.002;5.354;2024-02-04T14:07:09;3.05;;;1.85;;
41921;SDS011;27609;51.002;5.354;2024-02-04T14:09:35;4.68;;;1.42;;
41921;SDS011;27609;51.002;5.354;2024-02-04T14:12:04;1.60;;;1.50;;
41921;SDS011;27609;51.002;5.354;2024-02-04T14:14:30;1.55;;;1.40;;
41921;SDS011;27609;51.002;5.354;2024-02-04T14:16:56;2.00;;;1.58;;
41921;SDS011;27609;51.002;5.354;2024-02-04T14:19:22;3.45;;;2.22;;
41921;SDS011;27609;51.002;5.354;2024-02-04T14:21:48;1.85;;;1.20;;
41921;SDS011;27609;51.002;5.354;2024-02-04T14:24:14;2.88;;;1.60;;
41921;SDS011;27609;51.002;5.354;2024-02-04T14:26:40;1.55;;;1.33;;
41921;SDS011;27609;51.002;5.354;2024-02-04T14:29:06;2.40;;;1.70;;
41921;SDS011;27609;51.002;5.354;2024-02-04T14:31:32;1.95;;;1.48;;
41921;SDS011;27609;51.002;5.354;2024-02-04T14:33:58;6.95;;;1.60;;
41921;SDS011;27609;51.002;5.354;2024-02-04T14:36:24;3.85;;;1.33;;
41921;SDS011;27609;51.002;5.354;2024-02-04T14:38:49;4.47;;;1.83;;
41921;SDS011;27609;51.002;5.354;2024-02-04T14:41:16;4.57;;;1.27;;
41921;SDS011;27609;51.002;5.354;2024-02-04T14:43:42;1.77;;;1.35;;
41921;SDS011;27609;51.002;5.354;2024-02-04T14:46:07;4.88;;;1.58;;
41921;SDS011;27609;51.002;5.354;2024-02-04T14:48:35;3.42;;;1.48;;
41921;SDS011;27609;51.002;5.354;2024-02-04T14:51:02;2.20;;;1.30;;
41921;SDS011;27609;51.002;5.354;2024-02-04T14:53:28;2.50;;;1.50;;
41921;SDS011;27609;51.002;5.354;2024-02-04T14:55:53;1.08;;;0.98;;